KMKL/MKL METAR and TAF weather

Enter ICAO airport designator
Station Type Date Time Source
KMKL METAR 2019/02/21 12:08 UTC NOAA

KMKL 211208Z AUTO 00000KT 1 3/4SM BR OVC002 M01/M01 A3016 RMK AO2 T10061011


Station Type Date Time Source
KMKL Decoded METAR 2019/02/21 12:08 UTC NOAA

JACKSON MCKELLAR-SIPES RGNL, TN, United States (KMKL) 35-36N 088-55W 128M
Feb 21, 2019 - 07:08 AM EST / 2019.02.21 1208 UTC
Wind: Calm:0
Visibility: 1 3/4 mile(s):0
Sky conditions: overcast
Weather: mist
Temperature: 30.9 F (-0.6 C)
Dew Point: 30.0 F (-1.1 C)
Relative Humidity: 96%
Pressure (altimeter): 30.16 in. Hg (1021 hPa)
ob: KMKL 211208Z AUTO 00000KT 1 3/4SM BR OVC002 M01/M01 A3016 RMK AO2 T10061011
cycle: 12

Station Type Date Time Source
KMKL TAF 2019/02/21 12:42 UTC NOAA

TAF KMKL 211140Z 2112/2212 00000KT 1/2SM FZFG VV002
FM211400 04003KT 2SM BR BKN005
FM211530 04006KT P6SM FEW015 BKN120
FM211900 03007KT P6SM VCSH SCT050 OVC100
FM212300 05006KT P6SM -SHRA OVC050
FM220200 05008KT 5SM -SHRA BR SCT015 BKN020
FM220500 06006KT 5SM -SHRA BR OVC007


Example: see airport list